Flight Track Log - Related Links

Times and Time Zones

All times are in EDT time to prevent confusion due to time zone crossing. See the DAL781 flight status page for this flight to view local times or setup timezone preferences in your user account.

Time Position Orientation Groundspeed Altitude Reporting Facility
EDT Latitude Longitude Course Direction KTS MPH feet Rate Location/Type
Mon 05:41:41 PM 33.6186 -84.3381 145° Southeast 461 531 3,600  Level Atlanta Center
Mon 05:42:41 PM 33.5792 -84.2756 127° Southeast 301 346 6,100 2,835 Climbing Atlanta Center
Mon 05:43:00 PM 33.3551 -84.2383 140° Southeast  Level FlightAware Approximate
Mon 05:43:12 PM 33.5333 -84.2833 188° South 274 315 7,900  Level Atlanta TRACON
Mon 05:44:00 PM 33.2561 -84.1391 140° Southeast  Level FlightAware Approximate
Mon 05:45:00 PM 33.1569 -84.0401 140° Southeast  Level FlightAware Approximate
Mon 05:45:41 PM 33.3369 -84.2253 166° South 311 358 12,800  Level Atlanta Center
Mon 05:46:00 PM 33.0607 -83.9477 145° Southeast  Level FlightAware Approximate
Mon 05:46:41 PM 33.2597 -84.1531 142° Southeast 358 412 14,500  Level Atlanta Center
Mon 05:47:00 PM 32.9549 -83.8593 145° Southeast  Level FlightAware Approximate
Mon 05:47:41 PM 33.1722 -84.0661 140° Southeast 383 441 16,900  Level Atlanta Center
Mon 05:48:41 PM 33.0844 -83.9794 140° Southeast 408 470 18,600 1,750 Climbing Atlanta Center
Mon 05:49:41 PM 32.9883 -83.8953 144° Southeast 414 476 20,400 1,750 Climbing Atlanta Center
Mon 05:50:41 PM 32.8861 -83.8136 146° Southeast 433 498 22,100 1,650 Climbing Atlanta Center
Mon 05:51:41 PM 32.7814 -83.7275 145° Southeast 453 521 23,700 1,600 Climbing Atlanta Center
Mon 05:52:41 PM 32.6769 -83.6367 144° Southeast 458 527 25,300 1,450 Climbing Atlanta Center
Mon 05:53:41 PM 32.5764 -83.5383 140° Southeast 468 539 26,600 1,250 Climbing Atlanta Center
Mon 05:54:41 PM 32.4756 -83.4331 139° Southeast 473 544 27,800 1,333 Climbing Atlanta Center
Mon 05:55:56 PM 32.3331 -83.2883 139° Southeast 486 559 29,600 1,333 Climbing Jacksonville Center
Mon 05:56:56 PM 32.2267 -83.1847 141° Southeast 486 559 30,800 1,300 Climbing Jacksonville Center
Mon 05:57:56 PM 32.1183 -83.0789 140° Southeast 496 571 32,200 1,300 Climbing Jacksonville Center
Mon 05:58:56 PM 32.0267 -82.9858 139° Southeast 496 571 33,400 900 Climbing Jacksonville Center
Mon 05:59:56 PM 31.9222 -82.8853 141° Southeast 491 565 34,000 298 Climbing Jacksonville Center
Mon 06:00:57 PM 31.8242 -82.7900 140° Southeast 486 559 34,000  Level Jacksonville Center
Mon 06:01:56 PM 31.7236 -82.6897 140° Southeast 475 547 34,000  Level Jacksonville Center
Mon 06:02:56 PM 31.6233 -82.5925 140° Southeast 475 547 34,000  Level Jacksonville Center
Mon 06:03:57 PM 31.5208 -82.4953 141° Southeast 475 547 34,000  Level Jacksonville Center
Mon 06:04:56 PM 31.4161 -82.4056 144° Southeast 468 539 34,000  Level Jacksonville Center
Mon 06:05:57 PM 31.3092 -82.3211 146° Southeast 458 527 34,000  Level Jacksonville Center
Mon 06:06:57 PM 31.2044 -82.2344 145° Southeast 458 527 34,000  Level Jacksonville Center
Mon 06:07:56 PM 31.0933 -82.1406 144° Southeast 458 527 34,000  Level Jacksonville Center
Mon 06:08:56 PM 30.9883 -82.0517 144° Southeast 463 533 34,000  Level Jacksonville Center
Mon 06:09:56 PM 30.8833 -81.9631 144° Southeast 463 533 34,000  Level Jacksonville Center
Mon 06:10:56 PM 30.7781 -81.8747 144° Southeast 469 540 34,000  Level Jacksonville Center
Mon 06:11:56 PM 30.6731 -81.7864 144° Southeast 469 540 34,000  Level Jacksonville Center
Mon 06:12:57 PM 30.5658 -81.6958 144° Southeast 474 545 34,000  Level Jacksonville Center
Mon 06:13:56 PM 30.4564 -81.6058 145° Southeast 474 545 34,000  Level Jacksonville Center
Mon 06:14:56 PM 30.3489 -81.5206 146° Southeast 474 545 34,000  Level Jacksonville Center
Mon 06:15:56 PM 30.2294 -81.4669 159° South 467 537 34,000  Level Jacksonville Center
Mon 06:16:56 PM 30.1078 -81.4208 162° South 461 531 34,000  Level Jacksonville Center
Mon 06:17:56 PM 29.9839 -81.3722 161° South 461 531 34,000  Level Jacksonville Center
Mon 06:18:57 PM 29.8622 -81.3261 162° South 461 531 34,000  Level Jacksonville Center
Mon 06:19:56 PM 29.7386 -81.2803 162° South 461 531 34,000  Level Jacksonville Center
Mon 06:20:56 PM 29.6169 -81.2322 161° South 461 531 34,000  Level Jacksonville Center
Mon 06:21:56 PM 29.4911 -81.1842 162° South 461 531 34,000  Level Jacksonville Center
Mon 06:22:56 PM 29.3756 -81.1314 158° South 467 537 34,000  Level Jacksonville Center
Mon 06:23:56 PM 29.2517 -81.0861 162° South 462 532 34,000  Level Jacksonville Center
Mon 06:24:56 PM 29.1278 -81.0361 161° South 467 537 34,000  Level Jacksonville Center
Mon 06:26:39 PM 28.9139 -80.9606 163° South 467 537 34,000  Level Miami Center
Mon 06:27:39 PM 28.8044 -80.9164 161° South 472 543 34,000  Level Miami Center
Mon 06:28:39 PM 28.6706 -80.8642 161° South 472 543 34,000  Level Miami Center
Mon 06:29:39 PM 28.5608 -80.8247 162° South 467 537 34,000  Level Miami Center
Mon 06:30:39 PM 28.4411 -80.7781 161° South 467 537 34,000  Level Miami Center
Mon 06:31:39 PM 28.3214 -80.7314 161° South 461 531 34,000  Level Miami Center
Mon 06:32:39 PM 28.2083 -80.6664 153° Southeast 456 525 34,000  Level Miami Center
Mon 06:33:39 PM 28.1131 -80.5642 137° Southeast 461 531 34,000 450 Level Miami Center
Mon 06:34:39 PM 28.0156 -80.4575 136° Southeast 478 550 34,900 900 Climbing Miami Center
Mon 06:35:39 PM 27.9200 -80.3511 135° Southeast 489 563 35,800 800 Climbing Miami Center
Mon 06:36:39 PM 27.8181 -80.2494 139° Southeast 489 563 36,500 650 Climbing Miami Center
Mon 06:37:39 PM 27.7139 -80.1478 139° Southeast 494 568 37,100 550 Climbing Miami Center
Mon 06:38:39 PM 27.6119 -80.0464 139° Southeast 494 568 37,600 450 Climbing Miami Center
Mon 06:39:39 PM 27.5056 -79.9428 139° Southeast 494 568 38,000 200 Climbing Miami Center
Mon 06:40:39 PM 27.4075 -79.8419 138° Southeast 486 559 38,000  Level Miami Center
Mon 06:41:39 PM 27.2908 -79.7292 139° Southeast 486 559 38,000  Level Miami Center
Mon 06:42:39 PM 27.1883 -79.6239 138° Southeast 492 566 38,000  Level Miami Center
Mon 06:43:39 PM 27.0817 -79.5233 140° Southeast 499 574 38,000  Level Miami Center
Mon 06:44:39 PM 26.9872 -79.4303 139° Southeast 499 574 38,000 100 Level Miami Center
Mon 06:45:39 PM 26.8742 -79.3206 139° Southeast 492 566 38,200 300 Climbing Miami Center
Mon 06:46:39 PM 26.7797 -79.2233 137° Southeast 498 573 38,600 400 Climbing Miami Center
Mon 06:47:39 PM 26.6769 -79.1236 139° Southeast 498 573 39,000 200 Climbing Miami Center
Mon 06:48:39 PM 26.5719 -79.0217 139° Southeast 498 573 39,000  Level Miami Center
Mon 06:49:39 PM 26.4647 -78.9222 140° Southeast 498 573 39,000  Level Miami Center
Mon 06:50:39 PM 26.3597 -78.8206 139° Southeast 498 573 39,000  Level Miami Center
Mon 06:51:39 PM 26.2544 -78.7147 138° Southeast 498 573 39,000  Level Miami Center
Mon 06:52:39 PM 26.1306 -78.6061 142° Southeast 508 585 39,000  Level Miami Center
Mon 06:53:39 PM 26.0250 -78.5006 138° Southeast 508 585 39,000  Level Miami Center
Mon 06:54:39 PM 25.9156 -78.3975 140° Southeast 513 590 39,000  Level Miami Center
Mon 06:55:39 PM 25.8100 -78.2969 139° Southeast 513 590 39,000  Level Miami Center
Mon 06:56:39 PM 25.7044 -78.1942 139° Southeast 513 590 39,000  Level Miami Center
Mon 06:57:39 PM 25.6006 -78.0961 140° Southeast 503 579 39,000  Level Miami Center
Mon 06:58:39 PM 25.4928 -77.9939 139° Southeast 503 579 39,000  Level Miami Center
Mon 06:59:39 PM 25.3869 -77.8961 140° Southeast 503 579 39,000  Level Miami Center
Mon 07:00:39 PM 25.2811 -77.7942 139° Southeast 503 579 39,000  Level Miami Center
Mon 07:01:39 PM 25.1750 -77.6992 141° Southeast 503 579 39,000  Level Miami Center
Mon 07:02:39 PM 25.0878 -77.6183 140° Southeast 503 579 39,000  Level Miami Center
Mon 07:03:39 PM 24.9567 -77.4961 140° Southeast 508 585 39,000  Level Miami Center
Mon 07:04:39 PM 24.8464 -77.3925 140° Southeast 516 594 39,000  Level Miami Center
Mon 07:05:39 PM 24.7442 -77.2958 139° Southeast 506 582 39,000  Level Miami Center
Mon 07:06:39 PM 24.6378 -77.1972 140° Southeast 506 582 39,000  Level Miami Center
Mon 07:07:39 PM 24.5336 -77.0964 139° Southeast 506 582 39,000  Level Miami Center
Mon 07:08:39 PM 24.4269 -77.0025 141° Southeast 506 582 39,000  Level Miami Center
Mon 07:09:39 PM 24.3225 -76.9044 139° Southeast 506 582 39,000  Level Miami Center
Mon 07:10:39 PM 24.2139 -76.8064 141° Southeast 506 582 39,000  Level Miami Center
Mon 07:11:39 PM 24.1114 -76.7131 140° Southeast 501 577 39,000  Level Miami Center
Mon 07:12:39 PM 24.0047 -76.6156 140° Southeast 495 570 39,000  Level Miami Center
Mon 07:13:39 PM 23.9000 -76.5181 140° Southeast 495 570 39,000  Level Miami Center
Mon 07:14:39 PM 23.7933 -76.4206 140° Southeast 495 570 39,000  Level Miami Center
Mon 07:15:39 PM 23.6864 -76.3256 141° Southeast 495 570 39,000  Level Miami Center
Mon 07:16:39 PM 23.5794 -76.2286 140° Southeast 495 570 39,000  Level Miami Center
Mon 07:17:39 PM 23.4703 -76.1317 141° Southeast 495 570 39,000  Level Miami Center
Mon 07:18:39 PM 23.3611 -76.0328 140° Southeast 495 570 39,000  Level Miami Center
Mon 07:19:39 PM 23.2497 -75.9342 141° Southeast 502 578 39,000  Level Miami Center
Mon 07:20:39 PM 23.1383 -75.8331 140° Southeast 512 589 39,000  Level Miami Center
Mon 07:21:39 PM 23.0311 -75.7347 140° Southeast 512 589 39,000  Level Miami Center
Mon 07:22:39 PM 22.9217 -75.6386 141° Southeast 512 589 39,000  Level Miami Center
Mon 07:23:39 PM 22.8122 -75.5406 140° Southeast 512 589 39,000  Level Miami Center
Mon 07:24:39 PM 22.7028 -75.4447 141° Southeast 512 589 39,000  Level Miami Center
Mon 07:25:39 PM 22.5931 -75.3472 141° Southeast 507 583 39,000  Level Miami Center
Mon 07:26:39 PM 22.4856 -75.2517 141° Southeast 507 583 39,000  Level Miami Center
Mon 07:27:39 PM 22.3758 -75.1564 141° Southeast 507 583 39,000  Level Miami Center
Mon 07:28:39 PM 22.2683 -75.0614 141° Southeast 507 583 39,000  Level Miami Center
Mon 07:29:39 PM 22.1606 -74.9642 140° Southeast 507 583 39,000  Level Miami Center
Mon 07:30:39 PM 22.0528 -74.8739 142° Southeast 502 578 39,000  Level Miami Center
Mon 07:31:39 PM 21.9431 -74.7769 141° Southeast 502 578 39,000  Level Miami Center
Mon 07:32:39 PM 21.8350 -74.6825 141° Southeast 502 578 39,000  Level Miami Center
Mon 07:33:39 PM 21.7272 -74.5881 141° Southeast 502 578 39,000  Level Miami Center
Mon 07:34:39 PM 21.6297 -74.4983 139° Southeast 508 585 39,000  Level Miami Center
Mon 07:35:39 PM 21.5219 -74.4042 141° Southeast 508 585 39,000  Level Miami Center
Mon 07:36:39 PM 21.4139 -74.3103 141° Southeast 503 579 39,000  Level Miami Center
Mon 07:37:39 PM 21.3036 -74.2167 142° Southeast 503 579 39,000  Level Miami Center
Mon 07:38:39 PM 21.1933 -74.1186 140° Southeast 508 585 39,000  Level Miami Center
Mon 07:39:39 PM 21.0853 -74.0275 142° Southeast 508 585 39,000  Level Miami Center
Mon 07:40:39 PM 20.9772 -73.9319 140° Southeast 501 577 39,000  Level Miami Center
Mon 07:41:39 PM 20.8603 -73.8322 141° Southeast 501 577 39,000  Level Miami Center
Mon 07:42:39 PM 20.7500 -73.7394 142° Southeast 506 582 39,000  Level Miami Center
Mon 07:43:39 PM 20.6394 -73.6422 141° Southeast 506 582 39,000  Level Miami Center
Mon 07:44:39 PM 20.5333 -73.5517 141° Southeast 501 577 39,000  Level Miami Center
Mon 07:45:39 PM 20.4228 -73.4592 142° Southeast 506 582 39,000  Level Miami Center
Mon 07:46:39 PM 20.3144 -73.3644 141° Southeast 506 582 39,000  Level Miami Center
Mon 07:47:39 PM 20.2036 -73.2700 141° Southeast 506 582 39,000  Level Miami Center
Mon 07:48:39 PM 20.0933 -73.1892 145° Southeast 506 582 39,000  Level Miami Center
Mon 07:50:00 PM 19.9422 -73.0979 153° Southeast  Level FlightAware Approximate
Mon 07:57:00 PM 19.1401 -72.6573 153° Southeast  Level FlightAware Approximate
Mon 07:58:00 PM 19.0254 -72.5947 153° Southeast  Level FlightAware Approximate
Mon 07:59:00 PM 18.9107 -72.5322 153° Southeast  Level FlightAware Approximate
Mon 08:00:00 PM 18.7960 -72.4698 153° Southeast  Level FlightAware Approximate
Mon 08:01:00 PM 18.6812 -72.4075 153° Southeast  Level FlightAware Approximate
Mon 08:02:00 PM 18.5665 -72.3452 153° Southeast  Level FlightAware Approximate
Mon 08:03:00 PM 18.4517 -72.2831 153° Southeast  Level FlightAware Approximate
Mon 08:04:00 PM 18.3369 -72.2210 153° Southeast  Level FlightAware Approximate
Mon 08:05:00 PM 18.2221 -72.1590 153° Southeast  Level FlightAware Approximate
Mon 08:06:00 PM 18.1072 -72.0971 153° Southeast  Level FlightAware Approximate
Mon 08:07:00 PM 17.9924 -72.0353 153° Southeast  Level FlightAware Approximate
Mon 08:08:00 PM 17.8775 -71.9735 153° Southeast  Level FlightAware Approximate
Mon 08:09:00 PM 17.7626 -71.9118 153° Southeast  Level FlightAware Approximate
Mon 08:10:00 PM 17.6477 -71.8503 153° Southeast  Level FlightAware Approximate
Mon 08:11:00 PM 17.5327 -71.7887 153° Southeast  Level FlightAware Approximate
Mon 08:12:00 PM 17.4178 -71.7273 153° Southeast  Level FlightAware Approximate
Mon 08:13:00 PM 17.3030 -71.6656 153° Southeast  Level FlightAware Approximate
Mon 08:14:00 PM 17.1883 -71.6036 153° Southeast  Level FlightAware Approximate
Mon 08:15:00 PM 17.0736 -71.5417 153° Southeast  Level FlightAware Approximate
Mon 08:16:00 PM 16.9589 -71.4800 153° Southeast  Level FlightAware Approximate
Mon 08:17:00 PM 16.8442 -71.4182 153° Southeast  Level FlightAware Approximate
Mon 08:18:00 PM 16.7294 -71.3566 153° Southeast  Level FlightAware Approximate
Mon 08:19:00 PM 16.6147 -71.2950 153° Southeast  Level FlightAware Approximate
Mon 08:20:00 PM 16.4999 -71.2335 153° Southeast  Level FlightAware Approximate
Mon 08:21:00 PM 16.3851 -71.1721 153° Southeast  Level FlightAware Approximate
Mon 08:22:00 PM 16.2703 -71.1108 153° Southeast  Level FlightAware Approximate
Mon 08:23:00 PM 16.1555 -71.0495 153° Southeast  Level FlightAware Approximate
Mon 08:24:00 PM 16.0406 -70.9883 153° Southeast  Level FlightAware Approximate
Mon 08:25:00 PM 15.9255 -70.9275 153° Southeast  Level FlightAware Approximate
Mon 08:26:00 PM 15.8104 -70.8671 153° Southeast  Level FlightAware Approximate
Mon 08:27:00 PM 15.6952 -70.8067 153° Southeast  Level FlightAware Approximate
Mon 08:28:00 PM 15.5799 -70.7464 153° Southeast  Level FlightAware Approximate
Mon 08:29:00 PM 15.4647 -70.6861 153° Southeast  Level FlightAware Approximate
Mon 08:30:00 PM 15.3495 -70.6259 153° Southeast  Level FlightAware Approximate
Mon 08:31:00 PM 15.2342 -70.5658 153° Southeast  Level FlightAware Approximate
Mon 08:32:00 PM 15.1189 -70.5057 153° Southeast  Level FlightAware Approximate
Mon 08:33:00 PM 15.0036 -70.4457 153° Southeast  Level FlightAware Approximate
Mon 08:34:00 PM 14.8883 -70.3858 153° Southeast  Level FlightAware Approximate
Mon 08:35:00 PM 14.7730 -70.3260 153° Southeast  Level FlightAware Approximate
Mon 08:36:00 PM 14.6576 -70.2662 153° Southeast  Level FlightAware Approximate
Mon 08:37:00 PM 14.5423 -70.2064 153° Southeast  Level FlightAware Approximate
Mon 08:38:00 PM 14.4269 -70.1468 153° Southeast  Level FlightAware Approximate
Mon 08:39:00 PM 14.3115 -70.0871 153° Southeast  Level FlightAware Approximate
Mon 08:40:00 PM 14.1961 -70.0276 153° Southeast  Level FlightAware Approximate
Mon 08:41:00 PM 14.0807 -69.9681 153° Southeast  Level FlightAware Approximate
Mon 08:42:00 PM 13.9653 -69.9087 153° Southeast  Level FlightAware Approximate
Mon 08:43:00 PM 13.8498 -69.8493 153° Southeast  Level FlightAware Approximate
Mon 08:44:00 PM 13.7344 -69.7900 153° Southeast  Level FlightAware Approximate
Mon 08:45:00 PM 13.6189 -69.7307 153° Southeast  Level FlightAware Approximate
Mon 08:46:00 PM 13.5034 -69.6715 154° Southeast  Level FlightAware Approximate
Mon 08:47:00 PM 13.3879 -69.6124 154° Southeast  Level FlightAware Approximate
Mon 08:48:00 PM 13.2724 -69.5533 154° Southeast  Level FlightAware Approximate
Mon 08:49:00 PM 13.1568 -69.4943 154° Southeast  Level FlightAware Approximate
Mon 08:50:00 PM 13.0413 -69.4353 154° Southeast  Level FlightAware Approximate
Mon 08:51:00 PM 12.9257 -69.3764 154° Southeast  Level FlightAware Approximate
Mon 08:52:00 PM 12.8102 -69.3176 154° Southeast  Level FlightAware Approximate
Mon 08:53:00 PM 12.6946 -69.2588 154° Southeast  Level FlightAware Approximate
Mon 08:54:00 PM 12.5790 -69.2000 154° Southeast  Level FlightAware Approximate
Mon 08:55:00 PM 12.4634 -69.1413 154° Southeast  Level FlightAware Approximate
Mon 08:56:00 PM 12.3478 -69.0826 154° Southeast  Level FlightAware Approximate
Mon 08:57:00 PM 12.2320 -69.0243 154° Southeast  Level FlightAware Approximate
Mon 08:58:00 PM 12.1378 -68.9392 127° Southeast  Level FlightAware Approximate
Mon 08:59:00 PM 12.0592 -68.8345 127° Southeast  Level FlightAware Approximate
Mon 09:00:00 PM 11.9792 -68.7310 129° Southeast  Level FlightAware Approximate
Mon 09:01:00 PM 11.8984 -68.6282 129° Southeast  Level FlightAware Approximate
Mon 09:02:00 PM 11.8130 -68.5297 136° Southeast  Level FlightAware Approximate
Mon 09:03:00 PM 11.7421 -68.4210 131° Southeast  Level FlightAware Approximate
Mon 09:04:00 PM 11.6578 -68.3213 131° Southeast  Level FlightAware Approximate
Mon 09:05:00 PM 11.5739 -68.2211 128° Southeast  Level FlightAware Approximate
Mon 09:06:00 PM 11.4943 -68.1175 128° Southeast  Level FlightAware Approximate
Mon 09:07:00 PM 11.4146 -68.0140 129° Southeast  Level FlightAware Approximate
Mon 09:08:00 PM 11.3336 -67.9116 129° Southeast  Level FlightAware Approximate
Mon 09:09:00 PM 11.2525 -67.8092 129° Southeast  Level FlightAware Approximate
Mon 09:10:00 PM 11.1715 -67.7068 129° Southeast  Level FlightAware Approximate
Mon 09:11:00 PM 11.0898 -67.6050 132° Southeast  Level FlightAware Approximate
Mon 09:12:00 PM 11.0040 -67.5069 132° Southeast  Level FlightAware Approximate
Mon 09:13:00 PM 10.9250 -67.4031 127° Southeast  Level FlightAware Approximate
Mon 09:14:00 PM 10.8481 -67.2975 127° Southeast  Level FlightAware Approximate
Mon 09:15:00 PM 10.7698 -67.1931 127° Southeast  Level FlightAware Approximate
Mon 09:16:00 PM 10.6915 -67.0887 127° Southeast  Level FlightAware Approximate
Mon 09:17:00 PM 10.6133 -66.9843 127° Southeast  Level FlightAware Approximate
Mon 09:18:00 PM 10.6031 -66.9906 127° Southeast  Level Estimated
Mon 09:19:00 PM 10.6031 -66.9906 127° Southeast  Level Estimated
Mon 09:20:00 PM 10.6031 -66.9906 127° Southeast  Level Estimated

Login

Don't have an account? Register now (free) for customized features, flight alerts, and more!